sensor_id;sensor_type;location;lat;lon;timestamp;pressure;altitude;pressure_sealevel;temperature;humidity
25664;BME280;13522;50.018;20.014;2023-04-26T00:02:30;98204.73;;;8.47;95.91
25664;BME280;13522;50.018;20.014;2023-04-26T00:05:43;98197.75;;;8.46;95.06
25664;BME280;13522;50.018;20.014;2023-04-26T00:08:56;98199.31;;;8.39;95.15
25664;BME280;13522;50.018;20.014;2023-04-26T00:12:09;98208.36;;;8.36;95.02
25664;BME280;13522;50.018;20.014;2023-04-26T00:15:21;98201.96;;;8.39;95.04
25664;BME280;13522;50.018;20.014;2023-04-26T00:18:33;98208.79;;;8.41;93.83
25664;BME280;13522;50.018;20.014;2023-04-26T00:21:46;98217.98;;;8.37;94.44
25664;BME280;13522;50.018;20.014;2023-04-26T00:24:58;98216.99;;;8.38;93.29
25664;BME280;13522;50.018;20.014;2023-04-26T00:28:10;98216.75;;;8.32;94.43
25664;BME280;13522;50.018;20.014;2023-04-26T00:31:22;98209.78;;;8.31;94.12
25664;BME280;13522;50.018;20.014;2023-04-26T00:34:38;98217.72;;;8.31;93.11
25664;BME280;13522;50.018;20.014;2023-04-26T00:37:51;98219.79;;;8.37;93.02
25664;BME280;13522;50.018;20.014;2023-04-26T00:41:04;98218.95;;;8.36;93.14
25664;BME280;13522;50.018;20.014;2023-04-26T00:44:16;98215.61;;;8.34;91.36
25664;BME280;13522;50.018;20.014;2023-04-26T00:47:29;98229.29;;;8.30;91.25
25664;BME280;13522;50.018;20.014;2023-04-26T00:50:42;98224.69;;;8.32;90.42
25664;BME280;13522;50.018;20.014;2023-04-26T00:53:55;98221.05;;;8.33;90.42
25664;BME280;13522;50.018;20.014;2023-04-26T00:57:08;98219.40;;;8.32;88.34
25664;BME280;13522;50.018;20.014;2023-04-26T01:00:22;98223.42;;;8.26;86.33
25664;BME280;13522;50.018;20.014;2023-04-26T01:03:35;98225.95;;;8.28;87.56
25664;BME280;13522;50.018;20.014;2023-04-26T01:17:26;98241.52;;;8.12;85.06
25664;BME280;13522;50.018;20.014;2023-04-26T01:20:43;98237.49;;;8.08;84.28
25664;BME280;13522;50.018;20.014;2023-04-26T01:23:57;98248.63;;;8.02;83.93
25664;BME280;13522;50.018;20.014;2023-04-26T01:27:10;98247.23;;;7.98;82.63
25664;BME280;13522;50.018;20.014;2023-04-26T01:30:22;98258.37;;;7.92;83.03
25664;BME280;13522;50.018;20.014;2023-04-26T01:33:37;98257.23;;;7.84;83.22
25664;BME280;13522;50.018;20.014;2023-04-26T01:36:49;98264.76;;;7.79;83.39
25664;BME280;13522;50.018;20.014;2023-04-26T01:40:02;98264.31;;;7.74;82.37
25664;BME280;13522;50.018;20.014;2023-04-26T01:43:17;98269.89;;;7.71;82.59
25664;BME280;13522;50.018;20.014;2023-04-26T01:46:29;98266.55;;;7.69;82.14
25664;BME280;13522;50.018;20.014;2023-04-26T01:49:42;98272.39;;;7.63;81.38
25664;BME280;13522;50.018;20.014;2023-04-26T01:52:57;98280.72;;;7.59;82.21
25664;BME280;13522;50.018;20.014;2023-04-26T01:56:10;98282.10;;;7.53;81.35
25664;BME280;13522;50.018;20.014;2023-04-26T01:59:23;98279.30;;;7.45;81.84
25664;BME280;13522;50.018;20.014;2023-04-26T02:02:37;98287.20;;;7.36;80.78
25664;BME280;13522;50.018;20.014;2023-04-26T02:05:49;98291.23;;;7.30;81.74
25664;BME280;13522;50.018;20.014;2023-04-26T02:09:01;98291.77;;;7.24;82.08
25664;BME280;13522;50.018;20.014;2023-04-26T02:12:16;98295.78;;;7.19;83.53
25664;BME280;13522;50.018;20.014;2023-04-26T02:15:28;98292.27;;;7.09;82.53
25664;BME280;13522;50.018;20.014;2023-04-26T02:18:41;98295.05;;;7.07;82.68
25664;BME280;13522;50.018;20.014;2023-04-26T02:21:56;98301.66;;;7.01;81.83
25664;BME280;13522;50.018;20.014;2023-04-26T02:25:10;98302.79;;;6.99;83.35
25664;BME280;13522;50.018;20.014;2023-04-26T02:28:22;98295.25;;;6.94;84.37
25664;BME280;13522;50.018;20.014;2023-04-26T02:31:34;98305.25;;;6.91;83.81
25664;BME280;13522;50.018;20.014;2023-04-26T02:34:46;98307.19;;;6.89;83.05
25664;BME280;13522;50.018;20.014;2023-04-26T02:37:59;98296.88;;;6.86;83.00
25664;BME280;13522;50.018;20.014;2023-04-26T02:41:12;98303.84;;;6.87;83.80
25664;BME280;13522;50.018;20.014;2023-04-26T02:44:24;98305.31;;;6.80;84.07
25664;BME280;13522;50.018;20.014;2023-04-26T02:47:40;98303.66;;;6.79;85.66
25664;BME280;13522;50.018;20.014;2023-04-26T02:50:53;98299.04;;;6.71;84.66
25664;BME280;13522;50.018;20.014;2023-04-26T02:54:06;98305.64;;;6.66;85.98
25664;BME280;13522;50.018;20.014;2023-04-26T02:57:18;98306.06;;;6.61;86.48
25664;BME280;13522;50.018;20.014;2023-04-26T03:00:31;98308.70;;;6.61;86.88
25664;BME280;13522;50.018;20.014;2023-04-26T03:03:43;98306.44;;;6.57;87.55
25664;BME280;13522;50.018;20.014;2023-04-26T03:06:55;98315.58;;;6.53;86.53
25664;BME280;13522;50.018;20.014;2023-04-26T03:10:09;98316.52;;;6.52;86.86
25664;BME280;13522;50.018;20.014;2023-04-26T03:13:23;98315.81;;;6.50;87.80
25664;BME280;13522;50.018;20.014;2023-04-26T03:16:41;98328.56;;;6.45;88.79
25664;BME280;13522;50.018;20.014;2023-04-26T03:19:53;98321.88;;;6.41;88.96
25664;BME280;13522;50.018;20.014;2023-04-26T03:23:08;98329.08;;;6.39;89.72
25664;BME280;13522;50.018;20.014;2023-04-26T03:26:20;98325.73;;;6.37;89.87
25664;BME280;13522;50.018;20.014;2023-04-26T03:29:32;98327.66;;;6.35;89.42
25664;BME280;13522;50.018;20.014;2023-04-26T03:32:46;98336.78;;;6.31;90.49
25664;BME280;13522;50.018;20.014;2023-04-26T03:36:00;98343.98;;;6.29;91.43
25664;BME280;13522;50.018;20.014;2023-04-26T03:39:12;98348.69;;;6.25;90.89
25664;BME280;13522;50.018;20.014;2023-04-26T03:42:25;98351.69;;;6.21;90.26
25664;BME280;13522;50.018;20.014;2023-04-26T03:45:37;98351.69;;;6.21;90.81
25664;BME280;13522;50.018;20.014;2023-04-26T03:48:50;98353.62;;;6.19;90.76
25664;BME280;13522;50.018;20.014;2023-04-26T03:52:02;98363.31;;;6.18;90.36
25664;BME280;13522;50.018;20.014;2023-04-26T03:55:15;98362.50;;;6.18;90.61
25664;BME280;13522;50.018;20.014;2023-04-26T03:58:28;98369.22;;;6.10;90.27
25664;BME280;13522;50.018;20.014;2023-04-26T04:01:43;98370.20;;;6.09;90.39
25664;BME280;13522;50.018;20.014;2023-04-26T04:04:55;98385.53;;;6.04;90.49
25664;BME280;13522;50.018;20.014;2023-04-26T04:08:07;98386.74;;;6.00;90.48
25664;BME280;13522;50.018;20.014;2023-04-26T04:11:22;98381.38;;;6.02;90.92
25664;BME280;13522;50.018;20.014;2023-04-26T04:14:34;98384.82;;;6.02;91.40
25664;BME280;13522;50.018;20.014;2023-04-26T04:17:46;98391.20;;;6.00;90.02
25664;BME280;13522;50.018;20.014;2023-04-26T04:20:59;98390.09;;;6.02;91.08
25664;BME280;13522;50.018;20.014;2023-04-26T04:24:12;98387.72;;;5.99;90.13
25664;BME280;13522;50.018;20.014;2023-04-26T04:27:25;98397.55;;;5.97;90.14
25664;BME280;13522;50.018;20.014;2023-04-26T04:30:37;98405.33;;;5.99;90.78
25664;BME280;13522;50.018;20.014;2023-04-26T04:33:52;98405.81;;;5.93;89.85
25664;BME280;13522;50.018;20.014;2023-04-26T04:37:04;98415.28;;;5.95;89.59
25664;BME280;13522;50.018;20.014;2023-04-26T04:40:17;98414.20;;;5.98;91.15
25664;BME280;13522;50.018;20.014;2023-04-26T04:43:30;98423.91;;;5.97;91.07
25664;BME280;13522;50.018;20.014;2023-04-26T04:46:42;98429.66;;;5.91;89.75
25664;BME280;13522;50.018;20.014;2023-04-26T04:49:56;98423.31;;;5.94;90.68
25664;BME280;13522;50.018;20.014;2023-04-26T04:53:09;98433.86;;;5.94;90.23
25664;BME280;13522;50.018;20.014;2023-04-26T04:56:22;98430.12;;;5.96;90.13
25664;BME280;13522;50.018;20.014;2023-04-26T04:59:35;98430.61;;;6.01;89.86
25664;BME280;13522;50.018;20.014;2023-04-26T05:02:47;98428.69;;;6.03;89.06
25664;BME280;13522;50.018;20.014;2023-04-26T05:06:00;98428.69;;;6.03;88.59
25664;BME280;13522;50.018;20.014;2023-04-26T05:09:13;98436.42;;;6.16;88.83
25664;BME280;13522;50.018;20.014;2023-04-26T05:12:27;98433.41;;;6.63;87.87
25664;BME280;13522;50.018;20.014;2023-04-26T05:15:40;98439.47;;;7.16;85.71
25664;BME280;13522;50.018;20.014;2023-04-26T05:18:52;98433.47;;;7.35;84.47
25664;BME280;13522;50.018;20.014;2023-04-26T05:22:05;98434.80;;;7.29;83.73
25664;BME280;13522;50.018;20.014;2023-04-26T05:25:18;98440.09;;;7.29;84.17
25664;BME280;13522;50.018;20.014;2023-04-26T05:28:35;98446.27;;;7.39;83.75
25664;BME280;13522;50.018;20.014;2023-04-26T05:31:53;98447.86;;;7.51;84.25
25664;BME280;13522;50.018;20.014;2023-04-26T05:35:18;98448.52;;;7.44;82.78
25664;BME280;13522;50.018;20.014;2023-04-26T05:38:31;98452.72;;;7.46;81.73
25664;BME280;13522;50.018;20.014;2023-04-26T05:41:43;98456.40;;;7.34;81.64
25664;BME280;13522;50.018;20.014;2023-04-26T05:44:59;98453.14;;;7.51;82.58
25664;BME280;13522;50.018;20.014;2023-04-26T05:48:12;98455.47;;;7.75;82.56
25664;BME280;13522;50.018;20.014;2023-04-26T05:51:24;98451.70;;;7.68;80.62
25664;BME280;13522;50.018;20.014;2023-04-26T05:54:37;98449.97;;;7.87;79.85
25664;BME280;13522;50.018;20.014;2023-04-26T05:57:50;98449.38;;;8.24;78.81
25664;BME280;13522;50.018;20.014;2023-04-26T06:01:03;98440.39;;;8.55;77.93
25664;BME280;13522;50.018;20.014;2023-04-26T06:04:17;98439.83;;;8.61;75.73
25664;BME280;13522;50.018;20.014;2023-04-26T06:07:32;98432.17;;;8.77;75.77
25664;BME280;13522;50.018;20.014;2023-04-26T06:10:44;98442.89;;;8.66;73.69
25664;BME280;13522;50.018;20.014;2023-04-26T06:13:56;98433.01;;;8.87;74.07
25664;BME280;13522;50.018;20.014;2023-04-26T06:17:09;98435.70;;;9.33;73.15
25664;BME280;13522;50.018;20.014;2023-04-26T06:20:22;98436.72;;;9.23;71.78
25664;BME280;13522;50.018;20.014;2023-04-26T06:23:34;98435.59;;;9.99;69.83
25664;BME280;13522;50.018;20.014;2023-04-26T06:26:46;98431.88;;;10.19;68.51
25664;BME280;13522;50.018;20.014;2023-04-26T06:29:59;98418.68;;;10.97;66.88
25664;BME280;13522;50.018;20.014;2023-04-26T06:33:12;98422.81;;;10.74;67.14
25664;BME280;13522;50.018;20.014;2023-04-26T06:36:24;98410.89;;;11.73;64.71
25664;BME280;13522;50.018;20.014;2023-04-26T06:39:38;98402.84;;;11.65;63.86
25664;BME280;13522;50.018;20.014;2023-04-26T06:42:50;98400.66;;;11.86;62.79
25664;BME280;13522;50.018;20.014;2023-04-26T06:46:05;98404.13;;;11.78;59.74
25664;BME280;13522;50.018;20.014;2023-04-26T06:49:18;98401.73;;;12.09;59.73
25664;BME280;13522;50.018;20.014;2023-04-26T06:52:31;98405.77;;;11.79;59.85
25664;BME280;13522;50.018;20.014;2023-04-26T06:55:43;98409.77;;;12.25;58.92
25664;BME280;13522;50.018;20.014;2023-04-26T06:59:01;98401.67;;;12.51;58.98
25664;BME280;13522;50.018;20.014;2023-04-26T07:02:14;98400.09;;;12.24;53.62
25664;BME280;13522;50.018;20.014;2023-04-26T07:05:29;98399.67;;;12.53;54.78
25664;BME280;13522;50.018;20.014;2023-04-26T07:08:41;98396.09;;;12.12;55.42
25664;BME280;13522;50.018;20.014;2023-04-26T07:11:53;98404.69;;;12.96;55.15
25664;BME280;13522;50.018;20.014;2023-04-26T07:15:08;98402.02;;;12.80;53.60
25664;BME280;13522;50.018;20.014;2023-04-26T07:18:21;98408.52;;;13.01;53.92
25664;BME280;13522;50.018;20.014;2023-04-26T07:21:33;98409.20;;;12.71;53.79
25664;BME280;13522;50.018;20.014;2023-04-26T07:24:45;98413.14;;;12.43;52.74
25664;BME280;13522;50.018;20.014;2023-04-26T07:27:58;98406.84;;;12.68;52.63
25664;BME280;13522;50.018;20.014;2023-04-26T07:31:10;98411.20;;;12.69;52.94
25664;BME280;13522;50.018;20.014;2023-04-26T07:34:22;98397.52;;;13.45;50.08
25664;BME280;13522;50.018;20.014;2023-04-26T07:37:35;98405.47;;;13.53;50.70
25664;BME280;13522;50.018;20.014;2023-04-26T07:40:47;98406.81;;;12.44;51.15
25664;BME280;13522;50.018;20.014;2023-04-26T07:43:59;98419.02;;;12.05;54.89
25664;BME280;13522;50.018;20.014;2023-04-26T07:47:14;98441.38;;;11.61;57.32
25664;BME280;13522;50.018;20.014;2023-04-26T07:50:27;98441.25;;;11.62;55.79
25664;BME280;13522;50.018;20.014;2023-04-26T07:53:39;98429.05;;;12.19;53.69
25664;BME280;13522;50.018;20.014;2023-04-26T07:56:51;98441.55;;;11.33;55.24
25664;BME280;13522;50.018;20.014;2023-04-26T08:00:05;98451.64;;;11.04;56.50
25664;BME280;13522;50.018;20.014;2023-04-26T08:03:19;98441.98;;;11.47;55.93
25664;BME280;13522;50.018;20.014;2023-04-26T08:06:32;98445.50;;;10.86;54.02
25664;BME280;13522;50.018;20.014;2023-04-26T08:09:44;98439.67;;;11.26;53.13
25664;BME280;13522;50.018;20.014;2023-04-26T08:12:56;98446.27;;;10.79;53.33
25664;BME280;13522;50.018;20.014;2023-04-26T08:16:09;98438.63;;;11.96;50.68
25664;BME280;13522;50.018;20.014;2023-04-26T08:19:21;98433.65;;;12.59;50.72
25664;BME280;13522;50.018;20.014;2023-04-26T08:22:36;98424.05;;;13.14;48.46
25664;BME280;13522;50.018;20.014;2023-04-26T08:25:48;98442.42;;;12.35;50.16
25664;BME280;13522;50.018;20.014;2023-04-26T08:29:01;98433.49;;;12.68;48.24
25664;BME280;13522;50.018;20.014;2023-04-26T08:32:14;98429.17;;;12.99;48.26
25664;BME280;13522;50.018;20.014;2023-04-26T08:35:27;98454.84;;;12.18;50.80
25664;BME280;13522;50.018;20.014;2023-04-26T08:38:39;98444.48;;;11.48;50.95
25664;BME280;13522;50.018;20.014;2023-04-26T08:41:54;98460.84;;;11.35;52.91
25664;BME280;13522;50.018;20.014;2023-04-26T08:45:11;98442.48;;;12.59;49.64
25664;BME280;13522;50.018;20.014;2023-04-26T08:48:23;98430.05;;;13.24;46.59
25664;BME280;13522;50.018;20.014;2023-04-26T08:51:37;98438.02;;;13.00;48.73
25664;BME280;13522;50.018;20.014;2023-04-26T08:54:52;98445.73;;;12.29;51.89
25664;BME280;13522;50.018;20.014;2023-04-26T08:58:06;98453.02;;;11.60;50.75
25664;BME280;13522;50.018;20.014;2023-04-26T09:01:19;98457.50;;;11.33;51.81
25664;BME280;13522;50.018;20.014;2023-04-26T09:04:32;98436.72;;;13.12;50.48
25664;BME280;13522;50.018;20.014;2023-04-26T09:07:47;98426.22;;;13.27;46.44
25664;BME280;13522;50.018;20.014;2023-04-26T09:11:00;98435.84;;;12.71;47.52
25664;BME280;13522;50.018;20.014;2023-04-26T09:14:14;98452.90;;;12.37;50.41
25664;BME280;13522;50.018;20.014;2023-04-26T09:17:27;98432.16;;;13.53;46.35
25664;BME280;13522;50.018;20.014;2023-04-26T09:20:42;98422.22;;;14.63;43.09
25664;BME280;13522;50.018;20.014;2023-04-26T09:24:00;98428.97;;;13.65;46.89
25664;BME280;13522;50.018;20.014;2023-04-26T09:27:13;98449.91;;;12.32;48.67
25664;BME280;13522;50.018;20.014;2023-04-26T09:30:26;98458.05;;;11.88;50.55
25664;BME280;13522;50.018;20.014;2023-04-26T09:37:11;98455.94;;;12.00;50.53
25664;BME280;13522;50.018;20.014;2023-04-26T09:40:24;98471.73;;;11.24;53.41
25664;BME280;13522;50.018;20.014;2023-04-26T09:43:39;98481.03;;;11.03;55.49
25664;BME280;13522;50.018;20.014;2023-04-26T09:47:04;98486.48;;;10.84;56.33
25664;BME280;13522;50.018;20.014;2023-04-26T09:50:28;98491.50;;;10.69;57.38
25664;BME280;13522;50.018;20.014;2023-04-26T09:53:45;98483.50;;;11.22;56.49
25664;BME280;13522;50.018;20.014;2023-04-26T09:57:02;98459.52;;;12.98;52.07
25664;BME280;13522;50.018;20.014;2023-04-26T10:00:17;98437.98;;;14.11;48.51
25664;BME280;13522;50.018;20.014;2023-04-26T10:03:30;98473.17;;;12.87;52.02
25664;BME280;13522;50.018;20.014;2023-04-26T10:06:45;98486.00;;;11.67;54.84
25664;BME280;13522;50.018;20.014;2023-04-26T10:09:57;98490.58;;;10.78;55.71
25664;BME280;13522;50.018;20.014;2023-04-26T10:13:11;98497.18;;;10.74;58.00
25664;BME280;13522;50.018;20.014;2023-04-26T10:16:26;98492.47;;;11.03;59.61
25664;BME280;13522;50.018;20.014;2023-04-26T10:19:41;98502.72;;;10.63;60.08
25664;BME280;13522;50.018;20.014;2023-04-26T10:22:55;98482.85;;;10.85;60.01
25664;BME280;13522;50.018;20.014;2023-04-26T10:30:11;98474.55;;;11.66;55.54
25664;BME280;13522;50.018;20.014;2023-04-26T10:33:25;98476.91;;;11.52;57.97
25664;BME280;13522;50.018;20.014;2023-04-26T10:40:28;98474.03;;;11.02;54.72
25664;BME280;13522;50.018;20.014;2023-04-26T10:43:41;98484.58;;;10.94;54.11
25664;BME280;13522;50.018;20.014;2023-04-26T10:46:53;98478.98;;;10.79;52.91
25664;BME280;13522;50.018;20.014;2023-04-26T10:50:08;98474.88;;;10.85;53.23
25664;BME280;13522;50.018;20.014;2023-04-26T10:53:21;98481.08;;;10.58;51.82
25664;BME280;13522;50.018;20.014;2023-04-26T10:56:53;98489.86;;;10.41;52.80
25664;BME280;13522;50.018;20.014;2023-04-26T11:00:28;98490.92;;;10.48;54.02
25664;BME280;13522;50.018;20.014;2023-04-26T11:03:42;98493.98;;;10.53;52.36
25664;BME280;13522;50.018;20.014;2023-04-26T11:07:06;98501.27;;;10.51;55.42
25664;BME280;13522;50.018;20.014;2023-04-26T11:10:24;98504.80;;;10.15;57.46
25664;BME280;13522;50.018;20.014;2023-04-26T11:13:38;98508.45;;;10.41;57.36
25664;BME280;13522;50.018;20.014;2023-04-26T11:16:52;98513.25;;;10.55;57.69
25664;BME280;13522;50.018;20.014;2023-04-26T11:20:10;98504.60;;;10.53;55.29
25664;BME280;13522;50.018;20.014;2023-04-26T11:23:29;98505.20;;;10.47;54.46
25664;BME280;13522;50.018;20.014;2023-04-26T11:26:42;98499.27;;;11.41;53.77
25664;BME280;13522;50.018;20.014;2023-04-26T11:30:06;98481.77;;;12.57;51.29
25664;BME280;13522;50.018;20.014;2023-04-26T11:33:21;98476.22;;;13.17;48.66
25664;BME280;13522;50.018;20.014;2023-04-26T11:36:36;98471.83;;;12.99;46.11
25664;BME280;13522;50.018;20.014;2023-04-26T11:39:49;98479.78;;;12.59;48.21
25664;BME280;13522;50.018;20.014;2023-04-26T11:43:02;98493.63;;;11.87;45.66
25664;BME280;13522;50.018;20.014;2023-04-26T11:46:15;98504.28;;;11.44;46.90
25664;BME280;13522;50.018;20.014;2023-04-26T11:49:30;98514.92;;;11.44;48.64
25664;BME280;13522;50.018;20.014;2023-04-26T11:52:43;98512.04;;;11.38;47.17
25664;BME280;13522;50.018;20.014;2023-04-26T11:55:55;98516.86;;;11.16;46.76
25664;BME280;13522;50.018;20.014;2023-04-26T11:59:08;98502.63;;;11.25;47.16
25664;BME280;13522;50.018;20.014;2023-04-26T12:02:24;98494.13;;;11.91;45.61
25664;BME280;13522;50.018;20.014;2023-04-26T12:05:37;98493.33;;;12.98;46.42
25664;BME280;13522;50.018;20.014;2023-04-26T12:08:52;98498.89;;;13.21;48.60
25664;BME280;13522;50.018;20.014;2023-04-26T12:12:06;98508.54;;;13.22;50.11
25664;BME280;13522;50.018;20.014;2023-04-26T12:15:21;98497.55;;;13.49;46.50
25664;BME280;13522;50.018;20.014;2023-04-26T12:18:37;98488.53;;;13.50;44.99
25664;BME280;13522;50.018;20.014;2023-04-26T12:21:50;98480.72;;;14.11;45.19
25664;BME280;13522;50.018;20.014;2023-04-26T12:25:10;98480.95;;;14.40;44.13
25664;BME280;13522;50.018;20.014;2023-04-26T12:28:23;98476.30;;;14.34;43.27
25664;BME280;13522;50.018;20.014;2023-04-26T12:31:35;98483.47;;;14.42;42.09
25664;BME280;13522;50.018;20.014;2023-04-26T12:34:48;98481.66;;;13.71;43.76
25664;BME280;13522;50.018;20.014;2023-04-26T12:38:00;98487.20;;;13.14;45.99
25664;BME280;13522;50.018;20.014;2023-04-26T12:41:13;98492.81;;;12.86;44.79
25664;BME280;13522;50.018;20.014;2023-04-26T12:44:25;98515.97;;;12.36;47.11
25664;BME280;13522;50.018;20.014;2023-04-26T12:47:38;98517.83;;;12.02;48.07
25664;BME280;13522;50.018;20.014;2023-04-26T12:50:51;98521.65;;;11.74;47.38
25664;BME280;13522;50.018;20.014;2023-04-26T12:54:03;98529.16;;;11.61;46.59
25664;BME280;13522;50.018;20.014;2023-04-26T12:57:16;98529.83;;;11.63;47.33
25664;BME280;13522;50.018;20.014;2023-04-26T13:00:28;98515.70;;;11.80;46.40
25664;BME280;13522;50.018;20.014;2023-04-26T13:03:41;98524.77;;;12.29;45.67
25664;BME280;13522;50.018;20.014;2023-04-26T13:06:54;98505.86;;;13.05;43.48
25664;BME280;13522;50.018;20.014;2023-04-26T13:10:08;98506.14;;;12.86;43.21
25664;BME280;13522;50.018;20.014;2023-04-26T13:13:20;98517.55;;;12.13;45.32
25664;BME280;13522;50.018;20.014;2023-04-26T13:16:36;98524.08;;;11.93;46.50
25664;BME280;13522;50.018;20.014;2023-04-26T13:19:48;98537.55;;;11.66;47.59
25664;BME280;13522;50.018;20.014;2023-04-26T13:23:02;98555.33;;;11.48;49.03
25664;BME280;13522;50.018;20.014;2023-04-26T13:26:14;98567.96;;;11.10;52.85
25664;BME280;13522;50.018;20.014;2023-04-26T13:29:27;98567.56;;;11.05;51.66
25664;BME280;13522;50.018;20.014;2023-04-26T13:32:40;98563.49;;;11.11;50.73
25664;BME280;13522;50.018;20.014;2023-04-26T13:35:52;98549.36;;;11.10;48.17
25664;BME280;13522;50.018;20.014;2023-04-26T13:39:04;98551.76;;;11.39;47.09
25664;BME280;13522;50.018;20.014;2023-04-26T13:42:17;98545.94;;;12.04;47.63
25664;BME280;13522;50.018;20.014;2023-04-26T13:45:30;98540.95;;;12.35;44.46
25664;BME280;13522;50.018;20.014;2023-04-26T13:48:42;98546.62;;;12.06;46.49
25664;BME280;13522;50.018;20.014;2023-04-26T13:51:56;98568.88;;;11.37;49.19
25664;BME280;13522;50.018;20.014;2023-04-26T13:55:10;98578.23;;;11.23;50.23
25664;BME280;13522;50.018;20.014;2023-04-26T13:58:22;98563.63;;;11.45;49.50
25664;BME280;13522;50.018;20.014;2023-04-26T14:01:35;98563.13;;;12.10;48.68
25664;BME280;13522;50.018;20.014;2023-04-26T14:04:47;98550.97;;;12.41;48.88
25664;BME280;13522;50.018;20.014;2023-04-26T14:08:02;98543.41;;;12.70;44.67
25664;BME280;13522;50.018;20.014;2023-04-26T14:11:14;98533.92;;;12.76;44.18
25664;BME280;13522;50.018;20.014;2023-04-26T14:14:27;98543.14;;;12.40;44.46
25664;BME280;13522;50.018;20.014;2023-04-26T14:17:40;98550.59;;;11.77;47.09
25664;BME280;13522;50.018;20.014;2023-04-26T14:20:52;98554.97;;;11.43;46.73
25664;BME280;13522;50.018;20.014;2023-04-26T14:24:05;98575.70;;;11.21;48.97
25664;BME280;13522;50.018;20.014;2023-04-26T14:27:18;98578.73;;;10.91;51.06
25664;BME280;13522;50.018;20.014;2023-04-26T14:30:30;98589.77;;;10.69;50.34
25664;BME280;13522;50.018;20.014;2023-04-26T14:33:43;98591.93;;;10.83;50.60
25664;BME280;13522;50.018;20.014;2023-04-26T14:36:55;98585.56;;;11.29;50.17
25664;BME280;13522;50.018;20.014;2023-04-26T14:40:11;98563.56;;;11.37;47.70
25664;BME280;13522;50.018;20.014;2023-04-26T14:43:23;98560.03;;;11.54;46.67
25664;BME280;13522;50.018;20.014;2023-04-26T14:46:36;98551.89;;;11.73;40.79
25664;BME280;13522;50.018;20.014;2023-04-26T14:49:48;98563.32;;;11.91;46.42
25664;BME280;13522;50.018;20.014;2023-04-26T14:53:00;98557.43;;;12.05;44.63
25664;BME280;13522;50.018;20.014;2023-04-26T14:56:12;98556.63;;;12.12;42.58
25664;BME280;13522;50.018;20.014;2023-04-26T14:59:24;98556.13;;;11.83;42.20
25664;BME280;13522;50.018;20.014;2023-04-26T15:02:36;98576.45;;;11.67;43.19
25664;BME280;13522;50.018;20.014;2023-04-26T15:05:49;98580.47;;;11.53;44.45
25664;BME280;13522;50.018;20.014;2023-04-26T15:09:01;98582.31;;;11.53;46.96
25664;BME280;13522;50.018;20.014;2023-04-26T15:12:14;98601.66;;;11.63;48.21
25664;BME280;13522;50.018;20.014;2023-04-26T15:15:26;98594.98;;;11.23;48.94
25664;BME280;13522;50.018;20.014;2023-04-26T15:18:39;98593.85;;;11.08;48.97
25664;BME280;13522;50.018;20.014;2023-04-26T15:21:51;98600.63;;;11.20;48.32
25664;BME280;13522;50.018;20.014;2023-04-26T15:25:03;98591.56;;;11.31;45.94
25664;BME280;13522;50.018;20.014;2023-04-26T15:28:17;98582.78;;;11.30;44.69
25664;BME280;13522;50.018;20.014;2023-04-26T15:31:29;98584.27;;;11.33;44.96
25664;BME280;13522;50.018;20.014;2023-04-26T15:34:42;98586.33;;;11.21;45.67
25664;BME280;13522;50.018;20.014;2023-04-26T15:37:57;98591.65;;;11.21;44.90
25664;BME280;13522;50.018;20.014;2023-04-26T15:41:09;98595.83;;;11.24;45.13
25664;BME280;13522;50.018;20.014;2023-04-26T15:44:22;98603.48;;;11.09;47.99
25664;BME280;13522;50.018;20.014;2023-04-26T15:47:34;98606.18;;;10.82;46.56
25664;BME280;13522;50.018;20.014;2023-04-26T15:50:46;98606.12;;;10.92;49.19
25664;BME280;13522;50.018;20.014;2023-04-26T15:53:58;98623.30;;;10.70;48.92
25664;BME280;13522;50.018;20.014;2023-04-26T15:57:11;98626.91;;;10.42;50.29
25664;BME280;13522;50.018;20.014;2023-04-26T16:00:23;98640.80;;;10.26;51.38
25664;BME280;13522;50.018;20.014;2023-04-26T16:03:37;98641.42;;;9.92;50.74
25664;BME280;13522;50.018;20.014;2023-04-26T16:06:52;98649.39;;;9.82;52.58
25664;BME280;13522;50.018;20.014;2023-04-26T16:10:06;98656.21;;;9.85;52.16
25664;BME280;13522;50.018;20.014;2023-04-26T16:13:20;98658.18;;;9.73;52.66
25664;BME280;13522;50.018;20.014;2023-04-26T16:16:32;98663.63;;;9.72;53.49
25664;BME280;13522;50.018;20.014;2023-04-26T16:19:45;98661.25;;;9.49;54.35
25664;BME280;13522;50.018;20.014;2023-04-26T16:22:57;98667.69;;;9.56;56.26
25664;BME280;13522;50.018;20.014;2023-04-26T16:26:09;98657.33;;;9.73;55.26
25664;BME280;13522;50.018;20.014;2023-04-26T16:29:22;98655.52;;;9.83;54.83
25664;BME280;13522;50.018;20.014;2023-04-26T16:32:34;98652.75;;;9.84;56.06
25664;BME280;13522;50.018;20.014;2023-04-26T16:35:50;98651.47;;;9.79;53.21
25664;BME280;13522;50.018;20.014;2023-04-26T16:39:02;98654.28;;;9.68;54.16
25664;BME280;13522;50.018;20.014;2023-04-26T16:42:19;98655.39;;;9.65;53.61
25664;BME280;13522;50.018;20.014;2023-04-26T16:45:31;98661.39;;;9.67;54.27
25664;BME280;13522;50.018;20.014;2023-04-26T16:48:44;98663.48;;;9.73;54.64
25664;BME280;13522;50.018;20.014;2023-04-26T16:51:56;98663.49;;;9.63;55.12
25664;BME280;13522;50.018;20.014;2023-04-26T16:55:09;98671.44;;;9.73;56.48
25664;BME280;13522;50.018;20.014;2023-04-26T16:58:21;98677.59;;;9.64;55.12
25664;BME280;13522;50.018;20.014;2023-04-26T17:01:34;98679.70;;;9.60;57.17
25664;BME280;13522;50.018;20.014;2023-04-26T17:04:46;98685.81;;;9.51;57.11
25664;BME280;13522;50.018;20.014;2023-04-26T17:08:00;98698.20;;;9.32;58.79
25664;BME280;13522;50.018;20.014;2023-04-26T17:11:15;98704.45;;;9.21;59.55
25664;BME280;13522;50.018;20.014;2023-04-26T17:14:27;98715.33;;;9.18;59.97
25664;BME280;13522;50.018;20.014;2023-04-26T17:17:39;98732.73;;;9.11;61.10
25664;BME280;13522;50.018;20.014;2023-04-26T17:20:52;98736.03;;;8.94;61.81